Time;durP1;ratioP1;P1;durP2;ratioP2;P2;SDS_P1;SDS_P2;PMS_P1;PMS_P2;Temp;Humidity;BMP_temperature;BMP_pressure;BME280_temperature;BME280_humidity;BME280_pressure;Samples;Min_cycle;Max_cycle;Signal;HPM_P1;HPM_P2
2022/04/18 00:02:05;;;;;;;1.60;0.75;;;;;;;15.94;31.10;101760.78;4993078;28;20065;-69
2022/04/18 00:04:31;;;;;;;1.10;0.82;;;;;;;15.91;30.12;101763.78;4994177;28;20058;-69
2022/04/18 00:06:56;;;;;;;0.75;0.70;;;;;;;15.86;31.70;101763.31;4994446;28;20022;-68
2022/04/18 00:09:22;;;;;;;2.70;0.90;;;;;;;15.81;30.80;101762.88;4993186;28;20022;-68
2022/04/18 00:11:47;;;;;;;0.70;0.70;;;;;;;15.76;30.67;101770.56;4994012;28;20388;-68
2022/04/18 00:14:13;;;;;;;3.45;1.13;;;;;;;15.68;30.37;101774.84;5025794;28;20085;-69
2022/04/18 00:16:38;;;;;;;1.10;1.00;;;;;;;15.63;31.64;101763.56;4994005;28;20451;-69
2022/04/18 00:19:03;;;;;;;1.02;0.93;;;;;;;15.60;30.81;101765.72;4994053;28;20579;-69
2022/04/18 00:21:29;;;;;;;1.83;1.10;;;;;;;15.57;31.55;101769.53;4992706;28;20089;-69
2022/04/18 00:23:54;;;;;;;1.92;1.20;;;;;;;15.55;31.09;101767.97;4994162;28;20038;-70
2022/04/18 00:26:19;;;;;;;1.95;1.23;;;;;;;15.52;30.36;101763.69;4992812;28;20022;-70
2022/04/18 00:28:45;;;;;;;0.90;0.80;;;;;;;15.51;31.60;101763.84;4994203;28;20057;-69
2022/04/18 00:31:10;;;;;;;2.30;1.02;;;;;;;15.46;30.58;101756.16;4992640;28;20081;-69
2022/04/18 00:33:36;;;;;;;4.38;1.58;;;;;;;15.42;31.00;101751.97;4992769;28;20120;-68
2022/04/18 00:36:01;;;;;;;1.63;1.25;;;;;;;15.39;32.35;101751.38;4993930;28;20026;-69
2022/04/18 00:38:28;;;;;;;0.73;0.65;;;;;;;15.36;32.29;101752.53;4993756;28;20491;-69
2022/04/18 00:40:54;;;;;;;1.77;0.73;;;;;;;15.35;30.95;101749.97;4994086;28;20022;-69
2022/04/18 00:43:37;;;;;;;1.40;0.90;;;;;;;15.31;32.37;101749.38;4993924;28;20399;-69
2022/04/18 00:46:02;;;;;;;1.33;1.20;;;;;;;15.28;32.25;101746.09;4992576;28;20058;-69
2022/04/18 00:48:28;;;;;;;1.67;0.98;;;;;;;15.25;32.07;101747.22;4993767;28;20038;-69
2022/04/18 00:50:53;;;;;;;1.50;0.80;;;;;;;15.20;31.92;101745.94;4993862;28;20033;-69
2022/04/18 00:53:18;;;;;;;1.38;1.05;;;;;;;15.17;32.43;101749.75;4993627;28;20050;-69
2022/04/18 00:55:44;;;;;;;1.40;0.88;;;;;;;15.12;32.32;101742.09;4993710;28;20022;-71
2022/04/18 00:58:10;;;;;;;3.42;1.13;;;;;;;15.07;31.43;101743.47;4993396;28;20030;-69
2022/04/18 01:00:35;;;;;;;2.88;0.82;;;;;;;15.06;32.51;101741.75;4997237;28;20396;-68
2022/04/18 01:03:00;;;;;;;1.98;0.98;;;;;;;15.02;31.86;101740.31;4996077;28;20419;-69
2022/04/18 01:05:26;;;;;;;1.17;0.93;;;;;;;14.99;32.25;101735.22;4997164;28;20060;-69
2022/04/18 01:07:52;;;;;;;3.10;1.00;;;;;;;14.97;32.41;101739.88;4995829;28;20438;-69
2022/04/18 01:10:17;;;;;;;1.35;1.00;;;;;;;14.93;31.95;101743.84;4995802;28;20081;-68
2022/04/18 01:12:43;;;;;;;4.43;1.38;;;;;;;14.89;31.89;101739.69;4996849;28;20027;-69
2022/04/18 01:15:09;;;;;;;2.97;0.95;;;;;;;14.86;32.57;101738.13;4995846;28;20160;-69
2022/04/18 01:17:34;;;;;;;1.55;0.88;;;;;;;14.83;31.84;101738.38;4995712;28;20089;-69
2022/04/18 01:19:59;;;;;;;3.30;1.20;;;;;;;14.80;31.79;101729.69;4995838;28;20532;-68
2022/04/18 01:22:25;;;;;;;2.10;0.98;;;;;;;14.82;31.88;101735.84;4996820;28;20026;-69
2022/04/18 01:30:18;;;;;;;2.53;1.02;;;;;;;14.70;31.91;101726.09;4996375;28;20573;-69
2022/04/18 01:32:44;;;;;;;1.73;1.20;;;;;;;14.67;31.98;101729.94;4995543;28;20045;-69
2022/04/18 01:35:10;;;;;;;8.23;1.58;;;;;;;14.63;32.68;101730.34;4995197;28;20432;-68
2022/04/18 01:37:37;;;;;;;2.40;1.10;;;;;;;14.62;32.54;101717.84;4995217;28;20015;-69
2022/04/18 01:40:04;;;;;;;1.40;1.10;;;;;;;14.58;32.93;101728.88;4995242;28;20488;-69
2022/04/18 01:42:29;;;;;;;1.77;0.80;;;;;;;14.57;32.72;101715.56;4995011;28;20113;-69
2022/04/18 01:44:54;;;;;;;5.10;1.30;;;;;;;14.55;31.76;101728.28;4996500;28;20105;-70
2022/04/18 01:47:20;;;;;;;1.10;0.90;;;;;;;14.53;32.28;101725.75;4995123;28;20050;-69
2022/04/18 01:49:45;;;;;;;3.28;1.08;;;;;;;14.50;31.80;101726.00;4995225;28;20029;-69
2022/04/18 01:52:10;;;;;;;1.75;1.00;;;;;;;14.47;32.01;101720.00;4996281;28;20431;-69
2022/04/18 01:54:36;;;;;;;1.08;0.98;;;;;;;14.45;33.00;101716.59;4996172;28;20026;-69
2022/04/18 01:57:01;;;;;;;6.97;1.23;;;;;;;14.42;32.56;101720.41;4994837;28;20036;-69
2022/04/18 01:59:26;;;;;;;2.88;1.40;;;;;;;14.39;32.56;101717.13;4995135;28;20026;-69
2022/04/18 02:01:51;;;;;;;4.55;1.17;;;;;;;14.32;32.87;101719.47;4994919;28;20030;-68
2022/04/18 02:04:17;;;;;;;1.88;1.10;;;;;;;14.28;32.18;101715.31;4996099;28;20026;-69
2022/04/18 02:06:42;;;;;;;2.45;0.95;;;;;;;14.23;32.92;101717.56;4995874;28;20034;-69
2022/04/18 02:09:07;;;;;;;1.92;0.98;;;;;;;14.20;33.24;101711.56;4994203;28;20027;-69
2022/04/18 02:11:33;;;;;;;1.60;1.02;;;;;;;14.16;32.85;101710.97;4995159;28;20495;-69
2022/04/18 02:13:58;;;;;;;2.72;1.50;;;;;;;14.13;33.22;101703.16;4995925;28;20037;-69
2022/04/18 02:16:25;;;;;;;4.57;1.20;;;;;;;14.09;33.06;101701.72;4995609;28;20034;-69
2022/04/18 02:18:50;;;;;;;3.88;1.25;;;;;;;14.06;32.98;101701.97;4994396;28;20054;-69
2022/04/18 02:21:16;;;;;;;2.58;1.00;;;;;;;14.04;32.80;101695.00;4995799;28;20037;-69
2022/04/18 02:23:42;;;;;;;6.03;1.30;;;;;;;14.01;32.88;101698.81;4994376;28;20452;-69
2022/04/18 02:26:08;;;;;;;5.95;1.50;;;;;;;13.98;32.71;101696.38;4995596;28;20031;-68
2022/04/18 02:28:34;;;;;;;3.85;1.45;;;;;;;13.97;33.02;101694.66;4995577;28;20384;-69
2022/04/18 02:30:59;;;;;;;1.73;1.00;;;;;;;13.95;32.88;101696.66;4994157;28;20046;-69
2022/04/18 02:33:24;;;;;;;2.88;1.25;;;;;;;13.93;32.89;101698.63;4977989;28;20041;-68
2022/04/18 02:35:50;;;;;;;2.95;1.63;;;;;;;13.91;33.29;101696.03;4993976;28;20065;-70
2022/04/18 02:38:15;;;;;;;3.13;1.20;;;;;;;13.91;33.35;101695.19;4995347;28;20388;-69
2022/04/18 02:40:41;;;;;;;5.32;1.15;;;;;;;13.89;33.44;101697.16;4995279;28;20181;-70
2022/04/18 02:43:06;;;;;;;1.65;1.40;;;;;;;13.88;33.53;101698.13;4995070;28;20026;-69
2022/04/18 02:45:32;;;;;;;2.03;1.27;;;;;;;13.86;33.02;101692.03;4995373;28;20030;-69
2022/04/18 02:47:58;;;;;;;4.20;1.20;;;;;;;13.85;33.90;101701.06;4993751;28;20022;-69
2022/04/18 02:50:24;;;;;;;6.18;1.40;;;;;;;13.81;32.80;101696.94;4995032;28;20472;-69
2022/04/18 02:52:50;;;;;;;3.45;1.50;;;;;;;13.81;33.38;101699.63;4977420;28;20034;-69
2022/04/18 02:55:15;;;;;;;6.75;1.40;;;;;;;13.81;33.40;101699.63;4995183;28;20034;-69
2022/04/18 02:57:40;;;;;;;1.90;1.50;;;;;;;13.81;33.50;101699.63;4994915;28;20101;-69
2022/04/18 03:00:08;;;;;;;2.13;1.35;;;;;;;13.81;33.05;101694.25;4977441;28;20026;-69
2022/04/18 03:02:34;;;;;;;3.05;1.48;;;;;;;13.75;33.32;101684.00;4993636;28;20022;-69
2022/04/18 03:04:59;;;;;;;2.70;1.23;;;;;;;13.72;33.00;101690.50;4994773;28;20026;-69
2022/04/18 03:07:24;;;;;;;5.05;1.17;;;;;;;13.67;33.68;101691.84;4995015;28;20034;-69
2022/04/18 03:09:50;;;;;;;2.20;1.35;;;;;;;13.60;33.67;101691.50;4994907;28;20023;-69
2022/04/18 03:12:15;;;;;;;2.17;1.65;;;;;;;13.57;33.76;101693.63;4993540;28;20084;-69
2022/04/18 03:14:40;;;;;;;2.55;1.50;;;;;;;13.51;33.18;101683.34;4994881;28;20022;-69
2022/04/18 03:17:06;;;;;;;2.03;1.52;;;;;;;13.48;33.63;101689.84;4993442;28;20041;-68
2022/04/18 03:19:32;;;;;;;4.53;1.50;;;;;;;13.45;34.20;101690.09;4993443;28;20031;-70
2022/04/18 03:21:59;;;;;;;2.08;1.40;;;;;;;13.42;33.22;101687.66;4994062;28;20029;-70
2022/04/18 03:24:24;;;;;;;3.65;1.10;;;;;;;13.41;34.36;101683.25;4994486;28;20054;-69
2022/04/18 03:26:49;;;;;;;1.88;1.40;;;;;;;13.37;34.12;101685.31;4993354;28;20109;-69
2022/04/18 03:29:15;;;;;;;3.42;1.40;;;;;;;13.34;34.35;101690.97;4994784;28;20164;-69
2022/04/18 03:31:40;;;;;;;3.05;1.10;;;;;;;13.32;33.54;101692.06;4993088;28;20097;-69
2022/04/18 03:34:06;;;;;;;2.58;1.02;;;;;;;13.28;33.61;101686.09;4994284;28;20038;-69
2022/04/18 03:41:59;;;;;;;8.35;1.35;;;;;;;13.30;33.79;101688.66;4994242;28;20455;-69
2022/04/18 03:44:24;;;;;;;5.00;1.02;;;;;;;13.31;34.13;101685.84;4994214;28;20042;-69
2022/04/18 03:46:50;;;;;;;2.45;1.30;;;;;;;13.34;33.68;101680.19;4994108;28;20073;-68
2022/04/18 03:49:15;;;;;;;6.60;1.45;;;;;;;13.33;33.93;101681.19;4994603;28;20029;-69
2022/04/18 03:51:41;;;;;;;2.45;1.27;;;;;;;13.34;34.00;101679.38;4993222;28;20080;-69
2022/04/18 03:54:06;;;;;;;2.22;1.02;;;;;;;13.29;34.36;101674.34;4994118;28;20026;-69
2022/04/18 03:56:32;;;;;;;4.15;1.20;;;;;;;13.27;33.77;101681.69;4976884;28;20522;-69
2022/04/18 03:58:57;;;;;;;3.05;1.40;;;;;;;13.25;34.17;101678.28;4994169;28;20030;-69
2022/04/18 04:01:22;;;;;;;4.28;1.80;;;;;;;13.21;34.27;101687.56;4976658;28;20022;-69
2022/04/18 04:03:48;;;;;;;2.38;1.50;;;;;;;13.19;34.35;101681.47;4994401;28;20049;-69
2022/04/18 04:06:13;;;;;;;2.42;1.40;;;;;;;13.16;34.04;101684.41;4993855;28;20023;-70
2022/04/18 04:08:39;;;;;;;2.92;1.20;;;;;;;13.14;34.57;101678.31;4993935;28;20050;-69
2022/04/18 04:11:04;;;;;;;1.55;1.45;;;;;;;13.12;34.31;101682.94;4992763;28;20026;-69
2022/04/18 04:13:29;;;;;;;8.77;1.88;;;;;;;13.09;34.10;101685.03;4993654;28;20058;-70
2022/04/18 04:15:56;;;;;;;1.15;1.08;;;;;;;13.07;34.18;101687.84;4992319;28;20026;-69
2022/04/18 04:18:21;;;;;;;3.15;1.20;;;;;;;13.04;34.01;101690.75;4994390;28;20130;-69
2022/04/18 04:20:46;;;;;;;1.48;1.30;;;;;;;13.01;34.32;101680.22;4994132;28;20475;-68
2022/04/18 04:23:12;;;;;;;4.05;1.88;;;;;;;13.00;34.39;101681.22;4993787;28;20029;-69
2022/04/18 04:25:37;;;;;;;1.45;1.27;;;;;;;12.97;33.79;101681.47;4993843;28;20046;-69
2022/04/18 04:28:03;;;;;;;4.75;1.58;;;;;;;12.96;34.06;101685.13;4992680;28;20030;-68
2022/04/18 04:30:28;;;;;;;1.58;1.25;;;;;;;12.94;34.11;101675.47;4993540;28;20042;-69
2022/04/18 04:32:54;;;;;;;5.82;1.20;;;;;;;12.92;34.68;101682.81;4993043;28;20026;-69
2022/04/18 04:35:19;;;;;;;5.65;1.55;;;;;;;12.90;34.44;101679.41;4996336;28;20053;-69
2022/04/18 04:37:45;;;;;;;2.42;1.20;;;;;;;12.86;34.30;101676.09;4996251;28;20018;-67
2022/04/18 04:40:11;;;;;;;5.35;1.48;;;;;;;12.84;34.87;101678.88;4996162;28;20441;-69
2022/04/18 04:42:37;;;;;;;1.20;1.08;;;;;;;12.84;34.34;101681.59;4996353;28;20042;-69
2022/04/18 04:45:03;;;;;;;1.80;1.40;;;;;;;12.81;34.94;101675.63;4997345;28;20488;-69
2022/04/18 04:47:29;;;;;;;2.83;1.52;;;;;;;12.82;34.74;101680.00;4996486;28;20030;-69
2022/04/18 04:49:54;;;;;;;2.95;2.22;;;;;;;12.81;34.97;101683.69;4996107;28;20065;-70
2022/04/18 04:52:20;;;;;;;3.85;1.40;;;;;;;12.80;35.04;101679.28;4997123;28;20026;-69
2022/04/18 04:54:45;;;;;;;2.13;1.42;;;;;;;12.81;34.81;101692.56;4997529;28;20165;-69
2022/04/18 04:57:11;;;;;;;4.85;1.55;;;;;;;12.83;34.96;101690.66;4995396;28;20061;-69
2022/04/18 04:59:36;;;;;;;4.78;1.65;;;;;;;12.82;34.98;101685.38;4997049;28;20046;-69
2022/04/18 05:02:02;;;;;;;2.08;1.33;;;;;;;12.84;34.60;101683.44;4976480;28;20034;-69
2022/04/18 05:04:27;;;;;;;3.88;1.65;;;;;;;12.88;34.79;101684.88;4986052;28;20030;-69
2022/04/18 05:06:53;;;;;;;2.08;1.58;;;;;;;12.93;34.83;101680.00;4997084;28;20101;-68
2022/04/18 05:09:18;;;;;;;5.35;2.05;;;;;;;13.01;34.73;101682.91;4997618;28;20036;-69
2022/04/18 05:11:46;;;;;;;2.28;1.65;;;;;;;13.10;35.02;101676.81;4996703;28;20034;-69
2022/04/18 05:14:12;;;;;;;3.60;1.50;;;;;;;13.22;35.01;101677.66;4979547;28;20030;-70
2022/04/18 05:16:37;;;;;;;12.15;2.03;;;;;;;13.31;35.18;101675.09;4995405;28;20026;-70
2022/04/18 05:19:02;;;;;;;4.10;1.40;;;;;;;13.44;34.65;101680.31;4995383;28;20112;-69
2022/04/18 05:21:28;;;;;;;6.75;1.65;;;;;;;13.59;34.70;101686.25;4996532;28;20026;-70
2022/04/18 05:23:53;;;;;;;2.70;1.70;;;;;;;13.73;35.00;101688.66;4996813;28;20026;-69
2022/04/18 05:26:18;;;;;;;2.33;1.50;;;;;;;13.86;35.09;101690.19;4995363;28;20028;-69
2022/04/18 05:28:44;;;;;;;4.72;1.83;;;;;;;14.01;34.54;101685.34;4996552;28;20463;-69
2022/04/18 05:31:09;;;;;;;2.92;1.85;;;;;;;14.16;34.33;101681.34;4996499;28;20061;-69
2022/04/18 05:33:35;;;;;;;7.13;1.33;;;;;;;14.30;34.95;101686.41;4995363;28;20038;-69
2022/04/18 05:36:00;;;;;;;3.53;1.38;;;;;;;14.45;34.12;101690.50;4995094;28;20057;-69
2022/04/18 05:38:26;;;;;;;5.75;2.13;;;;;;;14.61;34.38;101697.25;4996441;28;20034;-70
2022/04/18 05:40:52;;;;;;;5.43;1.83;;;;;;;14.79;34.12;101699.19;4995161;28;20026;-69
2022/04/18 05:43:17;;;;;;;3.97;1.48;;;;;;;15.01;34.60;101703.53;4996379;28;20026;-69
2022/04/18 05:45:43;;;;;;;2.65;1.75;;;;;;;15.20;33.70;101706.31;4996036;28;20546;-69
2022/04/18 05:48:08;;;;;;;6.57;1.55;;;;;;;15.40;33.47;101705.38;4996283;28;20396;-70
2022/04/18 05:50:34;;;;;;;2.63;1.17;;;;;;;15.62;34.25;101694.34;4995234;28;20033;-69
2022/04/18 05:52:59;;;;;;;2.03;1.33;;;;;;;15.85;33.81;101696.78;4995142;28;20077;-69
2022/04/18 05:55:25;;;;;;;6.85;1.92;;;;;;;16.11;33.76;101703.31;4994787;28;20450;-69
2022/04/18 05:57:52;;;;;;;2.88;1.48;;;;;;;16.37;34.63;101699.00;4996342;28;20384;-69
2022/04/18 06:00:18;;;;;;;4.20;1.45;;;;;;;16.65;34.29;101698.13;4996430;28;20395;-69
2022/04/18 06:02:44;;;;;;;8.20;1.60;;;;;;;16.93;33.25;101703.56;4994706;28;20084;-69
2022/04/18 06:05:09;;;;;;;4.75;1.92;;;;;;;17.18;33.49;101701.03;4995043;28;20038;-69
2022/04/18 06:07:34;;;;;;;4.35;1.70;;;;;;;17.43;33.91;101703.03;4996257;28;20054;-69
2022/04/18 06:10:01;;;;;;;2.45;1.45;;;;;;;17.68;33.39;101704.16;4995021;28;20026;-68
2022/04/18 06:12:27;;;;;;;7.28;1.65;;;;;;;17.91;32.74;101704.56;4994917;28;20018;-69
2022/04/18 06:14:53;;;;;;;3.30;1.42;;;;;;;18.10;33.54;101701.69;4994842;28;20110;-69
2022/04/18 06:17:18;;;;;;;4.22;1.45;;;;;;;18.30;32.55;101699.66;4995979;28;20021;-69
2022/04/18 06:19:44;;;;;;;5.53;1.52;;;;;;;18.51;32.59;101705.59;4995999;28;20030;-69
2022/04/18 06:22:09;;;;;;;5.97;1.95;;;;;;;18.71;32.63;101700.81;4996044;28;20062;-69
2022/04/18 06:24:34;;;;;;;2.33;1.50;;;;;;;18.88;32.70;101698.03;4996091;28;20030;-69
2022/04/18 06:27:00;;;;;;;4.10;1.40;;;;;;;19.06;31.56;101698.81;4996697;28;20065;-69
2022/04/18 06:29:26;;;;;;;6.20;1.88;;;;;;;19.24;32.16;101692.41;4994367;28;20034;-69
2022/04/18 06:31:53;;;;;;;1.73;1.50;;;;;;;19.42;31.33;101698.63;4994310;28;20053;-69
2022/04/18 06:34:19;;;;;;;4.78;1.20;;;;;;;19.58;31.80;101695.94;4996038;28;20062;-70
2022/04/18 06:36:44;;;;;;;2.25;1.60;;;;;;;19.74;32.14;101690.53;4995216;28;20050;-69
2022/04/18 06:39:10;;;;;;;5.32;1.60;;;;;;;19.89;31.25;101691.59;4995502;28;20132;-70
2022/04/18 06:41:35;;;;;;;2.88;1.42;;;;;;;20.08;31.42;101696.69;4995858;28;20061;-69
2022/04/18 06:44:00;;;;;;;3.35;1.27;;;;;;;20.24;30.88;101687.66;4995484;28;20038;-69
2022/04/18 06:46:27;;;;;;;7.85;1.67;;;;;;;20.41;31.03;101700.28;4978219;28;20054;-69
2022/04/18 06:48:53;;;;;;;4.43;1.50;;;;;;;20.59;31.38;101697.38;4994318;28;20054;-69
2022/04/18 06:51:18;;;;;;;4.70;1.42;;;;;;;20.78;30.74;101699.72;4995804;28;20049;-69
2022/04/18 06:53:43;;;;;;;2.03;1.38;;;;;;;20.98;30.47;101701.00;4995436;28;20041;-68
2022/04/18 06:58:53;;;;;;;2.42;1.30;;;;;;;21.37;30.31;101696.47;4995459;28;20419;-69
2022/04/18 07:01:18;;;;;;;4.80;1.52;;;;;;;21.55;30.55;101688.03;4995194;28;20022;-70
2022/04/18 07:03:44;;;;;;;7.25;1.27;;;;;;;21.74;29.85;101684.81;4995685;28;20037;-69
2022/04/18 07:06:09;;;;;;;2.92;1.15;;;;;;;21.92;29.65;101687.25;4994357;28;20026;-69
2022/04/18 07:08:35;;;;;;;2.45;1.10;;;;;;;22.11;29.52;101686.75;4995371;28;20053;-69
2022/04/18 07:11:00;;;;;;;3.88;1.65;;;;;;;22.31;29.48;101693.41;4994677;28;20121;-69
2022/04/18 07:13:25;;;;;;;4.32;1.05;;;;;;;22.54;29.47;101688.78;4995331;28;20064;-69
2022/04/18 07:15:52;;;;;;;2.38;1.42;;;;;;;22.80;29.96;101690.25;4995104;28;20034;-69
2022/04/18 07:18:17;;;;;;;2.50;1.58;;;;;;;23.06;28.60;101702.38;4995348;28;20026;-69
2022/04/18 07:20:43;;;;;;;3.28;1.38;;;;;;;23.32;28.43;101703.78;4994121;28;20026;-69
2022/04/18 07:23:11;;;;;;;3.63;1.35;;;;;;;23.58;29.10;101705.00;4995114;28;20053;-68
2022/04/18 07:25:36;;;;;;;1.75;0.93;;;;;;;23.82;28.42;101697.44;4994174;28;20088;-69
2022/04/18 07:28:03;;;;;;;5.15;1.27;;;;;;;24.05;27.96;101695.38;4995900;28;20077;-68
2022/04/18 07:30:30;;;;;;;3.33;1.10;;;;;;;24.27;27.83;101689.72;4994713;28;20057;-69
2022/04/18 07:32:56;;;;;;;2.38;1.48;;;;;;;24.50;27.54;101688.63;4993700;28;20030;-69
2022/04/18 07:35:21;;;;;;;4.13;1.50;;;;;;;24.69;28.07;101679.72;4994896;28;20026;-69
2022/04/18 07:40:30;;;;;;;6.00;1.30;;;;;;;25.06;27.24;101678.50;4994718;28;20041;-68
2022/04/18 07:42:56;;;;;;;1.85;1.02;;;;;;;25.18;27.64;101672.22;4993307;28;20019;-69
2022/04/18 07:45:21;;;;;;;1.20;1.10;;;;;;;25.34;27.07;101676.50;4977197;28;20025;-68
2022/04/18 07:47:47;;;;;;;2.50;1.17;;;;;;;25.46;27.33;101675.69;4995115;28;20026;-69
2022/04/18 07:50:15;;;;;;;3.05;1.15;;;;;;;25.62;26.63;101669.03;4994614;28;20026;-69
2022/04/18 07:52:40;;;;;;;7.28;2.20;;;;;;;25.79;27.04;101664.88;4977149;28;20400;-69
2022/04/18 07:55:06;;;;;;;2.40;1.13;;;;;;;25.97;26.94;101656.00;4994270;28;20030;-68
2022/04/18 07:57:32;;;;;;;3.50;1.38;;;;;;;26.17;26.74;101661.53;4994319;28;20065;-68
2022/04/18 07:59:57;;;;;;;3.00;1.35;;;;;;;26.36;26.35;101656.03;4994753;28;20054;-69
2022/04/18 08:02:23;;;;;;;2.03;1.17;;;;;;;26.56;26.50;101650.53;4994847;28;20395;-69
2022/04/18 08:04:49;;;;;;;8.38;1.30;;;;;;;26.75;25.96;101652.38;4994243;28;20034;-67
2022/04/18 08:07:14;;;;;;;1.58;0.93;;;;;;;26.94;25.21;101659.75;4995169;28;20035;-68
2022/04/18 08:09:39;;;;;;;3.72;1.00;;;;;;;27.14;25.87;101659.69;4998675;28;20105;-68
2022/04/18 08:12:06;;;;;;;4.40;1.38;;;;;;;27.36;25.54;101647.31;4998518;28;20030;-67
2022/04/18 08:14:32;;;;;;;7.55;1.00;;;;;;;27.58;25.55;101653.41;4998326;28;20073;-67
2022/04/18 08:16:57;;;;;;;2.03;1.13;;;;;;;27.77;24.67;101648.81;4997976;28;20022;-67
2022/04/18 08:19:23;;;;;;;1.25;1.08;;;;;;;27.98;24.63;101657.56;4997159;28;20122;-66
2022/04/18 08:21:48;;;;;;;3.47;1.00;;;;;;;28.17;25.48;101644.72;4997291;28;20029;-66
2022/04/18 08:24:13;;;;;;;5.63;1.15;;;;;;;28.37;25.56;101645.38;4996953;28;20018;-68
2022/04/18 08:26:40;;;;;;;2.33;1.20;;;;;;;28.54;25.04;101645.66;4998231;28;20391;-66
2022/04/18 08:29:05;;;;;;;2.25;0.88;;;;;;;28.68;24.38;101645.31;4996748;28;20498;-66
2022/04/18 08:31:31;;;;;;;1.17;1.08;;;;;;;28.84;23.89;101644.72;4998124;28;20038;-67
2022/04/18 08:33:56;;;;;;;2.75;1.15;;;;;;;29.02;24.51;101635.59;4998314;28;20034;-68
2022/04/18 08:36:22;;;;;;;5.57;2.30;;;;;;;29.14;23.67;101641.19;4996953;28;20029;-67
2022/04/18 08:38:48;;;;;;;3.58;1.10;;;;;;;29.21;23.87;101640.03;4998090;28;20092;-66
2022/04/18 08:41:16;;;;;;;2.60;1.00;;;;;;;29.27;23.39;101635.53;4997592;28;20062;-67
2022/04/18 08:43:42;;;;;;;4.03;1.80;;;;;;;29.39;23.73;101640.03;4996896;28;20022;-66
2022/04/18 08:46:07;;;;;;;1.77;1.23;;;;;;;29.45;23.90;101633.56;4997929;28;20046;-66
2022/04/18 08:54:05;;;;;;;3.30;1.40;;;;;;;29.64;22.92;101641.81;4996641;28;20069;-67
2022/04/18 08:56:31;;;;;;;3.40;1.23;;;;;;;29.80;22.61;101635.66;4997375;28;20116;-66
2022/04/18 08:58:57;;;;;;;2.67;1.70;;;;;;;29.96;21.90;101637.72;4995888;28;20022;-67
2022/04/18 09:01:22;;;;;;;2.92;1.70;;;;;;;30.05;22.09;101633.53;4997264;28;20439;-69
2022/04/18 09:03:47;;;;;;;2.22;1.60;;;;;;;30.16;22.28;101631.88;4997149;28;20050;-68
2022/04/18 09:06:14;;;;;;;1.58;1.00;;;;;;;30.27;22.06;101631.03;4995800;28;20032;-67
2022/04/18 09:08:51;;;;;;;2.33;1.10;;;;;;;30.24;22.01;101629.59;4995771;28;20088;-68
2022/04/18 09:11:33;;;;;;;2.30;1.17;;;;;;;30.35;22.22;101630.66;4997555;28;20031;-68
2022/04/18 09:14:08;;;;;;;3.22;1.20;;;;;;;30.46;21.77;101621.56;4997243;28;20088;-66
2022/04/18 09:16:35;;;;;;;4.05;1.40;;;;;;;30.52;21.27;101615.91;4996695;28;20037;-69
2022/04/18 09:19:16;;;;;;;2.92;1.48;;;;;;;30.61;21.77;101608.09;4994853;28;20034;-69
2022/04/18 09:21:42;;;;;;;1.58;1.10;;;;;;;30.69;21.70;101617.94;4995823;28;20030;-69
2022/04/18 09:24:22;;;;;;;6.00;1.77;;;;;;;30.71;21.32;101618.56;4995694;28;20030;-69
2022/04/18 09:26:47;;;;;;;3.97;1.48;;;;;;;30.77;20.95;101606.50;4996499;28;20033;-68
2022/04/18 09:29:13;;;;;;;2.75;1.70;;;;;;;30.84;21.17;101610.00;4995773;28;20038;-69
2022/04/18 09:31:40;;;;;;;4.07;1.50;;;;;;;30.89;20.51;101615.63;4995506;28;20074;-68
2022/04/18 09:34:05;;;;;;;4.13;1.60;;;;;;;30.90;20.71;101609.03;4995384;28;20054;-69
2022/04/18 09:36:31;;;;;;;1.65;1.55;;;;;;;30.96;20.35;101613.63;4995220;28;20417;-67
2022/04/18 09:38:57;;;;;;;2.75;1.48;;;;;;;31.00;19.99;101609.25;4996467;28;20033;-69
2022/04/18 09:41:27;;;;;;;1.73;1.42;;;;;;;31.14;20.44;101611.50;4995240;28;20494;-68
2022/04/18 09:43:53;;;;;;;6.03;1.77;;;;;;;31.29;20.67;101601.81;4996154;28;20113;-68
2022/04/18 09:46:19;;;;;;;2.97;1.73;;;;;;;31.50;20.67;101588.13;4994891;28;20026;-68
2022/04/18 09:48:47;;;;;;;3.90;1.75;;;;;;;31.98;20.33;101590.38;4995011;28;20219;-69
2022/04/18 09:51:13;;;;;;;2.80;2.70;;;;;;;32.58;19.61;101590.50;4995207;28;20022;-69
2022/04/18 09:53:41;;;;;;;2.80;2.00;;;;;;;33.37;18.79;101589.03;4996511;28;20068;-69
2022/04/18 09:56:08;;;;;;;2.83;1.45;;;;;;;34.69;19.06;101588.22;4994966;28;20030;-68
2022/04/18 09:58:35;;;;;;;1.50;1.38;;;;;;;36.71;17.04;101589.34;4995229;28;20053;-69
2022/04/18 10:01:03;;;;;;;1.65;1.55;;;;;;;36.68;17.01;101569.53;4994969;28;20022;-69
2022/04/18 10:03:29;;;;;;;1.48;1.38;;;;;;;35.91;17.87;101570.75;4994784;28;20054;-69
2022/04/18 10:05:55;;;;;;;2.20;1.58;;;;;;;35.49;17.97;101573.75;4995974;28;20112;-69
2022/04/18 10:08:20;;;;;;;1.58;1.08;;;;;;;35.25;18.38;101566.19;4978402;28;20030;-68
2022/04/18 10:10:46;;;;;;;2.08;1.15;;;;;;;35.21;17.58;101565.88;4995648;28;20030;-69
2022/04/18 10:13:12;;;;;;;1.35;1.20;;;;;;;35.29;17.87;101572.91;4994632;28;20480;-69
2022/04/18 10:15:39;;;;;;;2.03;1.25;;;;;;;35.38;17.27;101560.91;4995995;28;20030;-68
2022/04/18 10:18:07;;;;;;;2.42;1.10;;;;;;;35.46;16.87;101568.72;4995854;28;20041;-68
2022/04/18 10:20:55;;;;;;;4.07;1.17;;;;;;;35.57;17.74;101564.03;4995819;28;20391;-67
2022/04/18 10:23:58;;;;;;;1.30;1.20;;;;;;;35.80;17.08;101569.06;4964931;28;20035;-68
2022/04/18 10:26:54;;;;;;;1.42;1.30;;;;;;;35.95;17.41;101566.28;4995403;28;20030;-68
2022/04/18 10:29:30;;;;;;;1.30;1.20;;;;;;;36.25;16.75;101557.06;4995751;28;20117;-69
2022/04/18 10:32:00;;;;;;;2.47;1.48;;;;;;;36.50;16.44;101547.81;4993742;28;20563;-68
2022/04/18 10:34:31;;;;;;;3.13;1.10;;;;;;;36.70;16.58;101544.94;4995685;28;20080;-70
2022/04/18 10:36:57;;;;;;;1.65;1.50;;;;;;;36.93;16.47;101549.88;4995480;28;20019;-72
2022/04/18 10:39:32;;;;;;;2.50;1.65;;;;;;;37.02;16.81;101544.56;4993807;28;20042;-70
2022/04/18 10:41:59;;;;;;;1.75;1.52;;;;;;;37.11;16.77;101548.41;4994227;28;20026;-70
2022/04/18 10:44:32;;;;;;;1.50;1.17;;;;;;;37.29;15.97;101540.19;4995897;28;20018;-70
2022/04/18 10:47:05;;;;;;;2.45;1.23;;;;;;;37.52;16.16;101540.63;4995915;28;20503;-70
2022/04/18 10:49:35;;;;;;;1.52;1.30;;;;;;;37.55;15.83;101523.25;4995569;28;20031;-70
2022/04/18 10:52:09;;;;;;;3.25;1.05;;;;;;;37.67;15.71;101520.91;5127690;27;20509;-70
2022/04/18 10:54:35;;;;;;;1.40;1.30;;;;;;;37.72;15.61;101518.06;5111491;28;20039;-70
2022/04/18 10:57:05;;;;;;;1.40;1.23;;;;;;;37.76;15.73;101541.53;5111452;28;20024;-70
2022/04/18 10:59:37;;;;;;;4.45;1.20;;;;;;;37.75;15.47;101521.09;5111716;28;20027;-70
2022/04/18 11:02:07;;;;;;;4.65;1.60;;;;;;;37.76;15.76;101513.56;5111465;28;20028;-70
2022/04/18 11:04:35;;;;;;;2.03;1.83;;;;;;;37.68;15.82;101511.38;5110471;28;20032;-71
2022/04/18 11:07:19;;;;;;;2.90;1.30;;;;;;;37.61;16.09;101514.50;5111532;28;20031;-70
2022/04/18 11:09:45;;;;;;;2.58;1.48;;;;;;;37.66;15.80;101519.25;5109981;28;20026;-70
2022/04/18 11:12:20;;;;;;;2.78;1.50;;;;;;;37.53;15.32;101508.72;5093048;28;20035;-70
2022/04/18 11:14:53;;;;;;;2.00;1.50;;;;;;;37.50;15.64;101514.88;5110086;28;20024;-70
2022/04/18 11:17:44;;;;;;;4.13;1.90;;;;;;;37.61;15.47;101508.06;5111484;28;20115;-70
2022/04/18 11:20:48;;;;;;;3.33;1.98;;;;;;;37.66;15.13;101508.88;5110837;28;20046;-70
2022/04/18 11:23:17;;;;;;;2.55;1.48;;;;;;;37.73;15.67;101508.53;5109052;28;20096;-71
2022/04/18 11:26:00;;;;;;;3.67;1.80;;;;;;;37.83;15.77;101497.28;5108695;28;20154;-70
2022/04/18 11:28:45;;;;;;;3.10;2.28;;;;;;;37.99;15.44;101500.78;5109228;28;20039;-70
2022/04/18 11:31:17;;;;;;;3.60;1.58;;;;;;;38.14;14.84;101493.03;5108447;28;20532;-70
2022/04/18 11:33:43;;;;;;;2.45;2.00;;;;;;;38.16;14.83;101496.41;5108901;28;20039;-70
2022/04/18 11:36:12;;;;;;;3.75;1.50;;;;;;;38.14;15.70;101493.03;5108748;28;20043;-70
2022/04/18 11:38:37;;;;;;;1.73;1.50;;;;;;;37.91;14.90;101493.88;5108604;28;20020;-70
2022/04/18 11:41:13;;;;;;;1.88;1.67;;;;;;;37.77;14.87;101487.25;5108729;28;20048;-70
2022/04/18 11:43:39;;;;;;;2.33;1.40;;;;;;;37.87;15.44;101489.94;5109007;28;20024;-71
2022/04/18 11:46:07;;;;;;;2.75;1.60;;;;;;;37.96;15.06;101482.59;5092077;28;20043;-70